Pays
Station

 

Conditions  météo  pour  Sofia Observ.  -  Bulgarie    Bulgarie

  
3 °C
    
 
 

METAR pour Sofia Observ. :

LBSF 202300Z 12014KT 7000 -RA OVC010 03/02 Q1012 R09/19//95 NOSIG

 

Voici le bulletin pour Sofia Observ. - Bulgarie.
 
Le bulletin a été fait il y a 9 minutes, à 23:00 UTC .
Le vent soufflait à la vitesse de 7.2 mètres par seconde de Est/Sud-est (120°).
 
La température était de 3 °C, avec un point de rosée à 2 °C.
La température ressentie était de -3 °C.
 
La pression atmosphérique était de 1012 hPa.
L'humidité relative était de 93.1%.
 
Le ciel était nuageux à partir d'une hauteur de 305 mètres
 
La visibilité globale était de 7.0 kilomètres.
 
Actuellement léger/legère pluie.

 
 
 

Pays :   A   B   C   D   E   F   G   H   I   J   K   L   M   N   O   P   Q   R   S   T   U   V   W   Y   Z

 

Partenaires :  Info Météo avec Met'info
Météo Marine avec MeteoMarine.net
Infos Site  |  Infos Légales  |  Crédits  |  Confidentialité
Contactez-nous  |  Ajouter aux favoris
© 2013-2018 METAR - Tous droits réservés